Aviation Digital Data Service (ADDS)

Output produced by METARs form (1711 UTC 26 July 2014)
found at http://aviationweather.gov/adds/metars/
 
KFAY 261306Z 2613/2712 VRB03KT P6SM SCT005 BKN015 
     TEMPO 2613/2614 4SM BR OVC003 
     FM261430 25005KT P6SM BKN025 
     FM261600 25007KT P6SM SCT025 SCT040 
     FM270000 23005KT P6SM FEW250